KJKL

Details ICAO KJKL
Name JULIAN CARROLL
Region United States
Timezone America/New_York (UTC-5.0)
Plans Departing 1
Arriving 2
Stats Elevation 1,381 ft / 421 m (AMSL)
Location 37.593859° -83.317241°
Runways 1
Magnetic Variation 6.467° W
Sunrise 2017-12-16 12:43:08 UTC / 2017-12-16 07:43:08 Local
Sunset 2017-12-16 22:17:39 UTC / 2017-12-16 17:17:39 Local
Advertisement - Login to hide

Runways

ID Width Length Bearing (true) Bearing (mag) Surface Threshold Offset Overrun Length
01 75 ft / 23 m 4,408 ft / 1,344 m 7.87° 14.34° Asphalt 0 ft / 0 m 0 ft / 0 m
19 75 ft / 23 m 4,408 ft / 1,344 m 187.88° 194.35° Asphalt 0 ft / 0 m 0 ft / 0 m

Map

Weather


0- 5 10 15 20 25 30 35+ Temperature / ° C

Clouds and Precipitation
Forecast for 2017-12-17 06:00 UTC. Updated an hour ago

Ground ~20,000 ft ~40,000 ft Winds

METAR

KJKL 170353Z AUTO 21005KT 10SM CLR 04/M03 A3021 RMK AO2 SLP236 T00391033

TAF

KJKL 162337Z 1700/1724 VRB06KT P6SM SCT200 BKN250 FM171300 VRB03KT P6SM SCT060 BKN100 FM171600 VRB03KT P6SM VCSH SCT030 OVC050 FM172100 VRB03KT 6SM -RA BR SCT030 OVC050

Frequencies

Recorded 118.37 MHz ASOS
Unicom 122.80 MHz CTAF/UNICOM
Warning: Do not use this data for real-world aviation or navigation. No guarantee of current accuracy is given.